createdAt,value
2022-11-13T00:01:26.687Z,5.47
2022-11-13T00:04:14.128Z,5.48
2022-11-13T00:07:01.382Z,5.49
2022-11-13T00:09:49.127Z,5.53
2022-11-13T00:12:37.777Z,5.65
2022-11-13T00:15:27.352Z,5.60
2022-11-13T00:18:14.679Z,5.58
2022-11-13T00:21:06.600Z,5.57
2022-11-13T00:23:53.285Z,5.51
2022-11-13T00:26:40.632Z,5.48
2022-11-13T00:29:29.283Z,5.43
2022-11-13T00:32:16.973Z,5.46
2022-11-13T00:35:03.781Z,5.49
2022-11-13T00:37:51.139Z,5.70
2022-11-13T00:40:38.351Z,5.59
2022-11-13T00:43:25.843Z,5.53
2022-11-13T00:46:15.507Z,5.54
2022-11-13T00:49:02.787Z,5.54
2022-11-13T00:51:51.145Z,5.52
2022-11-13T00:54:39.027Z,5.32
2022-11-13T00:57:25.743Z,5.37
2022-11-13T01:00:13.776Z,5.27
2022-11-13T01:03:03.367Z,5.26
2022-11-13T01:05:50.502Z,5.32
2022-11-13T01:08:37.558Z,5.32
2022-11-13T01:11:26.335Z,5.37
2022-11-13T01:14:13.209Z,5.36
2022-11-13T01:17:02.943Z,5.33
2022-11-13T01:19:51.092Z,5.15
2022-11-13T01:22:39.232Z,5.14
2022-11-13T01:25:26.916Z,5.08
2022-11-13T01:28:13.922Z,5.08
2022-11-13T01:31:00.814Z,5.10
2022-11-13T01:33:48.759Z,5.09
2022-11-13T01:36:37.785Z,5.04
2022-11-13T01:39:24.676Z,4.99
2022-11-13T01:42:11.678Z,5.00
2022-11-13T01:45:03.028Z,5.03
2022-11-13T01:47:50.133Z,5.07
2022-11-13T01:50:37.176Z,5.05
2022-11-13T01:53:26.363Z,5.07
2022-11-13T01:56:15.852Z,5.08
2022-11-13T01:59:04.802Z,5.09
2022-11-13T02:01:52.729Z,5.12
2022-11-13T02:04:40.034Z,5.08
2022-11-13T02:07:28.706Z,5.06
2022-11-13T02:10:20.440Z,5.09
2022-11-13T02:13:07.760Z,5.17
2022-11-13T02:15:57.222Z,5.19
2022-11-13T02:18:44.575Z,5.20
2022-11-13T02:21:38.719Z,5.22
2022-11-13T02:24:32.410Z,5.20
2022-11-13T02:27:24.825Z,5.25
2022-11-13T02:30:22.192Z,5.16
2022-11-13T02:33:25.367Z,5.12
2022-11-13T02:36:13.953Z,5.27
2022-11-13T02:39:09.157Z,5.05
2022-11-13T02:42:01.246Z,4.98
2022-11-13T02:44:48.011Z,4.99
2022-11-13T02:47:36.683Z,5.11
2022-11-13T02:50:24.298Z,4.99
2022-11-13T02:53:11.835Z,5.03
2022-11-13T02:55:59.403Z,5.01
2022-11-13T02:58:49.629Z,4.95
2022-11-13T03:01:38.202Z,4.76
2022-11-13T03:04:28.971Z,4.84
2022-11-13T03:07:24.945Z,4.73
2022-11-13T03:10:14.601Z,4.74
2022-11-13T03:13:01.243Z,4.83
2022-11-13T03:15:50.940Z,4.89
2022-11-13T03:18:38.114Z,4.77
2022-11-13T03:21:25.494Z,4.76
2022-11-13T03:24:12.586Z,4.86
2022-11-13T03:26:59.705Z,4.81
2022-11-13T03:29:47.852Z,4.59
2022-11-13T03:32:38.216Z,4.52
2022-11-13T03:35:30.473Z,4.47
2022-11-13T03:38:18.649Z,4.64
2022-11-13T03:41:06.876Z,4.47
2022-11-13T03:43:53.959Z,4.51
2022-11-13T03:46:41.045Z,4.53
2022-11-13T03:49:29.608Z,4.50
2022-11-13T03:52:16.717Z,4.42
2022-11-13T03:55:03.795Z,4.40
2022-11-13T03:57:51.074Z,4.49
2022-11-13T04:00:39.346Z,4.43
2022-11-13T04:03:26.599Z,4.38
2022-11-13T04:06:19.650Z,4.45
2022-11-13T04:09:06.814Z,4.45
2022-11-13T04:11:53.468Z,4.28
2022-11-13T04:14:41.503Z,4.31
2022-11-13T04:17:30.887Z,4.33
2022-11-13T04:20:21.197Z,4.30
2022-11-13T04:23:12.826Z,4.26
2022-11-13T04:26:00.196Z,4.22
2022-11-13T04:28:47.424Z,4.16
2022-11-13T04:31:36.947Z,4.23
2022-11-13T04:34:23.738Z,4.24
2022-11-13T04:37:11.523Z,4.21
2022-11-13T04:40:00.526Z,4.19
2022-11-13T04:42:49.647Z,4.21
2022-11-13T04:45:37.403Z,4.18
2022-11-13T04:48:24.381Z,4.13
2022-11-13T04:51:14.291Z,4.18
2022-11-13T04:54:01.539Z,4.09
2022-11-13T04:56:49.653Z,4.07
2022-11-13T04:59:36.571Z,4.11
2022-11-13T05:02:24.217Z,4.00
2022-11-13T05:05:12.149Z,3.94
2022-11-13T05:08:01.675Z,3.96
2022-11-13T05:10:48.325Z,3.94
2022-11-13T05:13:37.725Z,3.93
2022-11-13T05:16:27.127Z,3.92
2022-11-13T05:19:13.932Z,3.98
2022-11-13T05:22:01.435Z,4.04
2022-11-13T05:24:49.163Z,3.98
2022-11-13T05:27:36.401Z,3.92
2022-11-13T05:30:27.059Z,4.00
2022-11-13T05:33:14.454Z,3.90
2022-11-13T05:36:05.843Z,3.94
2022-11-13T05:39:01.355Z,4.11
2022-11-13T05:41:51.036Z,4.03
2022-11-13T05:44:37.999Z,3.98
2022-11-13T05:47:26.841Z,3.93
2022-11-13T05:50:13.763Z,3.86
2022-11-13T05:53:00.874Z,3.81
2022-11-13T05:55:48.114Z,3.79
2022-11-13T05:58:37.828Z,3.73
2022-11-13T06:01:29.188Z,3.68
2022-11-13T06:04:17.596Z,3.64
2022-11-13T06:07:07.092Z,3.67
2022-11-13T06:09:54.187Z,3.70
2022-11-13T06:12:42.397Z,3.57
2022-11-13T06:15:29.476Z,3.60
2022-11-13T06:18:26.510Z,3.60
2022-11-13T06:21:19.664Z,3.58
2022-11-13T06:24:09.043Z,3.60
2022-11-13T06:26:55.625Z,3.57
2022-11-13T06:29:42.703Z,3.60
2022-11-13T06:32:29.416Z,3.59
2022-11-13T06:35:16.520Z,3.57
2022-11-13T06:38:04.668Z,3.54
2022-11-13T06:40:51.481Z,3.42
2022-11-13T06:43:41.547Z,3.43
2022-11-13T06:46:32.886Z,3.51
2022-11-13T06:49:22.765Z,3.52
2022-11-13T06:52:10.041Z,3.53
2022-11-13T06:54:58.421Z,3.52
2022-11-13T06:57:45.900Z,3.61
2022-11-13T07:00:36.992Z,3.49
2022-11-13T07:03:27.986Z,3.39
2022-11-13T07:06:18.271Z,3.43
2022-11-13T07:09:08.065Z,3.46
2022-11-13T07:11:56.526Z,3.48
2022-11-13T07:14:43.665Z,3.58
2022-11-13T07:17:30.962Z,3.59
2022-11-13T07:20:20.021Z,3.66
2022-11-13T07:23:06.819Z,3.73
2022-11-13T07:25:56.411Z,3.58
2022-11-13T07:28:46.533Z,3.59
2022-11-13T07:31:36.967Z,3.56
2022-11-13T07:34:23.847Z,3.69
2022-11-13T07:37:12.334Z,3.61
2022-11-13T07:40:00.552Z,3.69
2022-11-13T07:42:48.088Z,3.77
2022-11-13T07:45:37.240Z,3.75
2022-11-13T07:48:25.316Z,3.66
2022-11-13T07:51:13.053Z,3.75
2022-11-13T07:54:00.486Z,3.89
2022-11-13T07:56:47.801Z,3.94
2022-11-13T07:59:35.731Z,3.70
2022-11-13T08:02:26.718Z,3.59
2022-11-13T08:05:13.753Z,3.84
2022-11-13T08:08:04.013Z,4.02
2022-11-13T08:10:50.999Z,4.03
2022-11-13T08:13:39.402Z,4.22
2022-11-13T08:16:27.029Z,4.01
2022-11-13T08:19:16.017Z,3.82
2022-11-13T08:22:02.832Z,3.86
2022-11-13T08:24:49.749Z,3.90
2022-11-13T08:27:37.564Z,4.18
2022-11-13T08:30:26.438Z,4.37
2022-11-13T08:33:15.013Z,4.68
2022-11-13T08:36:03.528Z,4.68
2022-11-13T08:38:55.343Z,4.78
2022-11-13T08:41:42.435Z,4.75
2022-11-13T08:44:29.735Z,4.87
2022-11-13T08:47:16.579Z,4.82
2022-11-13T08:50:05.115Z,4.73
2022-11-13T08:52:56.852Z,4.82
2022-11-13T08:55:44.655Z,5.00
2022-11-13T08:58:32.016Z,4.95
2022-11-13T09:01:23.638Z,5.03
2022-11-13T09:04:14.011Z,5.23
2022-11-13T09:07:00.950Z,5.26
2022-11-13T09:09:49.002Z,5.18
2022-11-13T09:12:39.994Z,5.18
2022-11-13T09:15:27.006Z,5.39
2022-11-13T09:18:14.360Z,5.36
2022-11-13T09:21:06.960Z,5.60
2022-11-13T09:23:56.439Z,5.77
2022-11-13T09:26:45.005Z,5.78
2022-11-13T09:29:32.496Z,6.03
2022-11-13T09:32:19.766Z,6.03
2022-11-13T09:35:09.201Z,6.16
2022-11-13T09:37:55.945Z,6.03
2022-11-13T09:40:59.240Z,6.20
2022-11-13T09:43:55.317Z,6.34
2022-11-13T09:46:50.244Z,6.50
2022-11-13T09:49:43.209Z,6.48
2022-11-13T09:52:36.729Z,6.47
2022-11-13T09:55:33.734Z,6.59
2022-11-13T09:58:27.363Z,6.56
2022-11-13T10:01:25.112Z,6.59
2022-11-13T10:04:16.336Z,6.74
2022-11-13T10:07:27.211Z,6.38
2022-11-13T10:10:55.252Z,6.52
2022-11-13T10:13:46.788Z,6.22
2022-11-13T10:16:38.912Z,6.45
2022-11-13T10:19:32.257Z,6.65
2022-11-13T10:22:34.412Z,6.83
2022-11-13T10:25:24.050Z,6.70
2022-11-13T10:28:48.118Z,6.93
2022-11-13T10:31:24.903Z,6.92
2022-11-13T10:34:22.932Z,6.93
2022-11-13T10:37:28.428Z,7.14
2022-11-13T10:40:28.713Z,7.26
2022-11-13T10:43:18.312Z,7.14
2022-11-13T10:46:07.712Z,7.26
2022-11-13T10:48:54.823Z,7.20
2022-11-13T10:51:43.889Z,7.31
2022-11-13T10:54:32.792Z,7.11
2022-11-13T10:57:28.985Z,6.32
2022-11-13T11:00:26.355Z,6.42
2022-11-13T11:03:19.047Z,6.47
2022-11-13T11:06:08.125Z,6.53
2022-11-13T11:09:07.487Z,6.68
2022-11-13T11:12:30.394Z,6.79
2022-11-13T11:15:24.892Z,7.01
2022-11-13T11:18:26.768Z,7.04
2022-11-13T11:21:19.502Z,7.22
2022-11-13T11:24:14.770Z,7.26
2022-11-13T11:27:07.692Z,7.28
2022-11-13T11:30:04.930Z,7.39
2022-11-13T11:32:58.118Z,7.43
2022-11-13T11:35:50.915Z,7.50
2022-11-13T11:38:45.109Z,7.56
2022-11-13T11:41:37.807Z,7.69
2022-11-13T11:44:30.667Z,7.84
2022-11-13T11:47:19.397Z,7.84
2022-11-13T11:50:13.513Z,7.86
2022-11-13T11:53:06.994Z,7.90
2022-11-13T11:56:14.873Z,7.94
2022-11-13T11:59:17.120Z,7.95
2022-11-13T12:02:44.277Z,7.93
2022-11-13T12:05:38.641Z,7.91
2022-11-13T12:08:35.236Z,8.06
2022-11-13T12:11:32.337Z,8.18
2022-11-13T12:14:28.553Z,8.30
2022-11-13T12:17:29.140Z,8.31
2022-11-13T12:20:27.324Z,8.45
2022-11-13T12:23:31.963Z,8.53
2022-11-13T12:26:26.563Z,8.51
2022-11-13T12:29:31.087Z,8.45
2022-11-13T12:32:32.575Z,8.56
2022-11-13T12:35:21.647Z,8.55
2022-11-13T12:38:19.448Z,8.60
2022-11-13T12:41:19.426Z,8.54
2022-11-13T12:44:27.283Z,8.57
2022-11-13T12:47:15.567Z,8.50
2022-11-13T12:50:08.587Z,8.46
2022-11-13T12:53:03.665Z,8.51
2022-11-13T12:56:00.320Z,8.57
2022-11-13T13:02:31.609Z,8.61
2022-11-13T13:05:26.678Z,8.73
2022-11-13T13:08:33.965Z,8.85
2022-11-13T13:11:29.995Z,8.99
2022-11-13T13:14:33.858Z,9.18
2022-11-13T13:17:24.922Z,9.22
2022-11-13T13:20:31.033Z,9.41
2022-11-13T13:23:29.046Z,9.49
2022-11-13T13:26:21.235Z,9.95
2022-11-13T13:29:20.036Z,9.83
2022-11-13T13:32:20.654Z,9.81
2022-11-13T13:35:17.068Z,9.89
2022-11-13T13:38:19.725Z,9.92
2022-11-13T13:41:22.367Z,9.96
2022-11-13T13:44:32.388Z,10.13
2022-11-13T13:47:25.354Z,10.17
2022-11-13T13:50:17.452Z,10.15
2022-11-13T13:53:04.637Z,10.23
2022-11-13T13:55:56.040Z,10.28
2022-11-13T13:58:45.090Z,10.45
2022-11-13T14:01:36.276Z,10.51
2022-11-13T14:04:25.802Z,10.60
2022-11-13T14:07:24.617Z,10.65
2022-11-13T14:10:20.191Z,10.72
2022-11-13T14:13:10.430Z,10.85
2022-11-13T14:16:06.763Z,11.09
2022-11-13T14:19:03.936Z,11.10
2022-11-13T14:21:53.080Z,11.01
2022-11-13T14:24:50.479Z,10.93
2022-11-13T14:27:38.737Z,10.99
2022-11-13T14:30:29.061Z,11.03
2022-11-13T14:33:22.756Z,11.10
2022-11-13T14:36:10.369Z,11.04
2022-11-13T14:39:00.545Z,11.15
2022-11-13T14:41:53.407Z,11.32
2022-11-13T14:44:42.426Z,11.37
2022-11-13T14:47:40.139Z,11.35
2022-11-13T14:50:30.440Z,11.35
2022-11-13T14:53:29.490Z,11.49
2022-11-13T14:56:19.530Z,11.74
2022-11-13T14:59:19.349Z,11.46
2022-11-13T15:02:09.750Z,11.19
2022-11-13T15:04:57.202Z,10.82
2022-11-13T15:07:47.797Z,10.53
2022-11-13T15:10:34.901Z,10.18
2022-11-13T15:13:23.232Z,10.30
2022-11-13T15:16:19.672Z,10.20
2022-11-13T15:19:12.617Z,10.05
2022-11-13T15:22:28.361Z,9.92
2022-11-13T15:25:17.080Z,9.56
2022-11-13T15:28:54.019Z,9.47
2022-11-13T15:31:46.294Z,9.58
2022-11-13T15:34:36.332Z,9.78
2022-11-13T15:37:26.832Z,9.70
2022-11-13T15:40:18.996Z,9.41
2022-11-13T15:43:08.267Z,9.23
2022-11-13T15:45:55.820Z,9.20
2022-11-13T15:48:46.395Z,9.20
2022-11-13T15:51:38.095Z,8.91
2022-11-13T15:54:32.950Z,8.64
2022-11-13T15:57:22.250Z,8.63
2022-11-13T16:00:19.875Z,8.35
2022-11-13T16:03:14.035Z,8.32
2022-11-13T16:06:03.522Z,8.26
2022-11-13T16:08:52.869Z,7.97
2022-11-13T16:11:41.125Z,7.60
2022-11-13T16:14:28.162Z,7.43
2022-11-13T16:17:20.226Z,7.25
2022-11-13T16:20:12.634Z,7.04
2022-11-13T16:23:02.039Z,6.88
2022-11-13T16:25:50.286Z,6.74
2022-11-13T16:29:07.261Z,6.63
2022-11-13T16:31:45.749Z,6.56
2022-11-13T16:34:35.179Z,6.77
2022-11-13T16:37:25.924Z,6.80
2022-11-13T16:40:23.221Z,6.67
2022-11-13T16:43:12.959Z,6.57
2022-11-13T16:46:01.967Z,6.48
2022-11-13T16:48:50.938Z,6.69
2022-11-13T16:51:38.357Z,6.68
2022-11-13T16:54:25.143Z,6.47
2022-11-13T16:57:15.866Z,6.24
2022-11-13T17:00:06.956Z,6.03
2022-11-13T17:02:55.062Z,5.85
2022-11-13T17:05:42.446Z,5.75
2022-11-13T17:08:29.770Z,5.64
2022-11-13T17:11:18.101Z,5.56
2022-11-13T17:14:07.517Z,5.36
2022-11-13T17:16:54.654Z,5.41
2022-11-13T17:19:44.141Z,5.47
2022-11-13T17:22:31.552Z,5.52
2022-11-13T17:25:20.531Z,5.59
2022-11-13T17:28:07.530Z,5.62
2022-11-13T17:30:59.023Z,5.43
2022-11-13T17:33:46.224Z,5.33
2022-11-13T17:36:33.048Z,5.17
2022-11-13T17:39:21.411Z,5.11
2022-11-13T17:42:08.801Z,5.30
2022-11-13T17:44:55.899Z,5.28
2022-11-13T17:47:44.336Z,5.24
2022-11-13T17:50:33.191Z,5.28
2022-11-13T17:53:20.505Z,5.37
2022-11-13T17:56:10.588Z,5.44
2022-11-13T17:58:57.451Z,5.26
2022-11-13T18:01:44.581Z,5.27
2022-11-13T18:04:35.931Z,5.41
2022-11-13T18:07:22.691Z,5.59
2022-11-13T18:10:11.948Z,5.43
2022-11-13T18:12:58.956Z,5.35
2022-11-13T18:15:45.468Z,5.40
2022-11-13T18:18:32.365Z,5.46
2022-11-13T18:21:23.631Z,5.60
2022-11-13T18:24:14.911Z,5.59
2022-11-13T18:27:01.815Z,5.46
2022-11-13T18:29:48.777Z,5.55
2022-11-13T18:32:35.633Z,5.60
2022-11-13T18:35:22.581Z,5.55
2022-11-13T18:38:11.378Z,5.64
2022-11-13T18:41:02.913Z,5.56
2022-11-13T18:43:54.753Z,5.60
2022-11-13T18:46:42.254Z,5.90
2022-11-13T18:49:29.708Z,5.64
2022-11-13T18:52:16.686Z,5.41
2022-11-13T18:55:05.441Z,5.20
2022-11-13T18:57:52.731Z,5.01
2022-11-13T19:00:39.544Z,5.00
2022-11-13T19:03:31.325Z,4.99
2022-11-13T19:06:21.046Z,4.85
2022-11-13T19:09:13.376Z,4.68
2022-11-13T19:12:03.722Z,4.71
2022-11-13T19:14:51.320Z,4.66
2022-11-13T19:17:39.098Z,4.62
2022-11-13T19:20:26.739Z,4.75
2022-11-13T19:23:13.945Z,4.65
2022-11-13T19:26:00.950Z,4.60
2022-11-13T19:28:50.063Z,4.58
2022-11-13T19:31:37.291Z,4.57
2022-11-13T19:34:24.906Z,4.38
2022-11-13T19:37:17.763Z,4.32
2022-11-13T19:40:08.039Z,4.18
2022-11-13T19:42:55.635Z,4.16
2022-11-13T19:45:44.248Z,4.07
2022-11-13T19:48:31.594Z,3.99
2022-11-13T19:51:20.542Z,3.82
2022-11-13T19:54:07.459Z,3.84
2022-11-13T19:56:54.107Z,3.77
2022-11-13T19:59:42.080Z,3.77
2022-11-13T20:02:33.006Z,3.74
2022-11-13T20:05:20.924Z,3.80
2022-11-13T20:08:08.149Z,3.67
2022-11-13T20:10:55.556Z,3.89
2022-11-13T20:13:43.779Z,3.95
2022-11-13T20:16:31.388Z,3.90
2022-11-13T20:19:20.632Z,3.78
2022-11-13T20:22:08.837Z,3.71
2022-11-13T20:24:55.917Z,3.70
2022-11-13T20:27:47.118Z,3.67
2022-11-13T20:30:41.103Z,3.63
2022-11-13T20:33:33.077Z,3.70
2022-11-13T20:36:26.464Z,3.59
2022-11-13T20:39:14.518Z,3.68
2022-11-13T20:42:03.780Z,3.73
2022-11-13T20:44:51.282Z,3.69
2022-11-13T20:47:39.313Z,3.69
2022-11-13T20:50:26.711Z,3.94
2022-11-13T20:53:14.872Z,3.75
2022-11-13T20:56:17.391Z,3.67
2022-11-13T20:59:05.676Z,3.65
2022-11-13T21:01:53.098Z,3.66
2022-11-13T21:04:40.981Z,3.58
2022-11-13T21:07:28.936Z,3.58
2022-11-13T21:10:18.015Z,3.53
2022-11-13T21:13:05.934Z,3.42
2022-11-13T21:15:53.408Z,3.36
2022-11-13T21:18:40.086Z,3.29
2022-11-13T21:21:28.912Z,3.18
2022-11-13T21:24:15.978Z,3.23
2022-11-13T21:27:04.603Z,3.15
2022-11-13T21:29:53.863Z,3.08
2022-11-13T21:32:41.721Z,3.03
2022-11-13T21:35:31.343Z,3.01
2022-11-13T21:38:23.183Z,3.00
2022-11-13T21:41:23.001Z,3.11
2022-11-13T21:44:15.048Z,3.03
2022-11-13T21:47:02.362Z,3.08
2022-11-13T21:49:50.869Z,3.07
2022-11-13T21:52:38.813Z,3.10
2022-11-13T21:55:25.431Z,3.14
2022-11-13T21:58:12.453Z,3.17
2022-11-13T22:01:00.692Z,3.13
2022-11-13T22:03:48.560Z,3.15
2022-11-13T22:06:37.158Z,3.26
2022-11-13T22:09:26.734Z,3.29
2022-11-13T22:12:13.611Z,3.37
2022-11-13T22:15:01.749Z,3.54
2022-11-13T22:17:50.433Z,3.71
2022-11-13T22:20:37.555Z,3.72
2022-11-13T22:23:24.880Z,3.71
2022-11-13T22:26:14.018Z,3.71
2022-11-13T22:29:01.500Z,3.67
2022-11-13T22:31:50.049Z,3.63
2022-11-13T22:34:39.891Z,3.64
2022-11-13T22:37:26.725Z,3.61
2022-11-13T22:40:14.579Z,3.73
2022-11-13T22:43:06.621Z,3.73
2022-11-13T22:45:58.616Z,3.73
2022-11-13T22:48:47.711Z,3.70
2022-11-13T22:51:41.591Z,3.72
2022-11-13T22:54:28.458Z,3.66
2022-11-13T22:57:15.149Z,3.70
2022-11-13T23:00:04.740Z,3.77
2022-11-13T23:02:51.894Z,3.72
2022-11-13T23:05:38.886Z,3.63
2022-11-13T23:08:28.331Z,3.52
2022-11-13T23:11:18.560Z,3.48
2022-11-13T23:14:08.484Z,3.44
2022-11-13T23:16:55.629Z,3.41
2022-11-13T23:20:06.861Z,3.40
2022-11-13T23:22:53.636Z,3.44
2022-11-13T23:25:44.564Z,3.50
2022-11-13T23:28:32.813Z,3.45
2022-11-13T23:31:20.019Z,3.55
2022-11-13T23:34:07.156Z,3.57
2022-11-13T23:36:54.568Z,3.57
2022-11-13T23:39:43.833Z,3.62
2022-11-13T23:42:54.189Z,3.54
2022-11-13T23:45:39.722Z,3.62
2022-11-13T23:48:27.606Z,3.57
2022-11-13T23:51:23.686Z,3.60
2022-11-13T23:54:11.147Z,3.61
2022-11-13T23:56:58.250Z,3.59
2022-11-13T23:59:47.047Z,3.59
